sensor_id;sensor_type;location;lat;lon;timestamp;P1;durP1;ratioP1;P2;durP2;ratioP2
2191;SDS011;1102;49.718;11.902;2023-04-08T00:00:46;11.00;;;8.83;;
2191;SDS011;1102;49.718;11.902;2023-04-08T00:03:12;9.50;;;8.60;;
2191;SDS011;1102;49.718;11.902;2023-04-08T00:05:39;11.53;;;9.97;;
2191;SDS011;1102;49.718;11.902;2023-04-08T00:08:06;9.67;;;8.70;;
2191;SDS011;1102;49.718;11.902;2023-04-08T00:10:33;11.40;;;9.80;;
2191;SDS011;1102;49.718;11.902;2023-04-08T00:13:00;10.20;;;9.20;;
2191;SDS011;1102;49.718;11.902;2023-04-08T00:15:27;10.43;;;9.30;;
2191;SDS011;1102;49.718;11.902;2023-04-08T00:17:53;10.37;;;8.23;;
2191;SDS011;1102;49.718;11.902;2023-04-08T00:20:21;9.67;;;8.23;;
2191;SDS011;1102;49.718;11.902;2023-04-08T00:22:48;10.10;;;9.20;;
2191;SDS011;1102;49.718;11.902;2023-04-08T00:25:15;9.80;;;8.80;;
2191;SDS011;1102;49.718;11.902;2023-04-08T00:27:42;15.20;;;9.83;;
2191;SDS011;1102;49.718;11.902;2023-04-08T00:30:09;9.50;;;8.60;;
2191;SDS011;1102;49.718;11.902;2023-04-08T00:32:36;9.30;;;8.07;;
2191;SDS011;1102;49.718;11.902;2023-04-08T00:35:03;9.90;;;8.90;;
2191;SDS011;1102;49.718;11.902;2023-04-08T00:37:30;9.63;;;8.73;;
2191;SDS011;1102;49.718;11.902;2023-04-08T00:39:57;9.60;;;8.40;;
2191;SDS011;1102;49.718;11.902;2023-04-08T00:42:24;11.53;;;8.80;;
2191;SDS011;1102;49.718;11.902;2023-04-08T00:44:50;10.70;;;7.40;;
2191;SDS011;1102;49.718;11.902;2023-04-08T00:47:17;11.50;;;8.90;;
2191;SDS011;1102;49.718;11.902;2023-04-08T00:49:44;9.43;;;8.40;;
2191;SDS011;1102;49.718;11.902;2023-04-08T00:52:11;10.70;;;9.23;;
2191;SDS011;1102;49.718;11.902;2023-04-08T00:54:38;8.90;;;7.93;;
2191;SDS011;1102;49.718;11.902;2023-04-08T00:57:05;9.33;;;8.43;;
2191;SDS011;1102;49.718;11.902;2023-04-08T00:59:33;13.63;;;8.40;;
2191;SDS011;1102;49.718;11.902;2023-04-08T01:02:15;12.20;;;9.67;;
2191;SDS011;1102;49.718;11.902;2023-04-08T01:05:03;10.67;;;8.40;;
2191;SDS011;1102;49.718;11.902;2023-04-08T01:07:33;9.23;;;8.23;;
2191;SDS011;1102;49.718;11.902;2023-04-08T01:10:04;9.27;;;8.37;;
2191;SDS011;1102;49.718;11.902;2023-04-08T01:12:39;10.23;;;9.33;;
2191;SDS011;1102;49.718;11.902;2023-04-08T01:15:10;10.63;;;9.10;;
2191;SDS011;1102;49.718;11.902;2023-04-08T01:17:37;10.97;;;8.97;;
2191;SDS011;1102;49.718;11.902;2023-04-08T01:20:05;13.60;;;11.37;;
2191;SDS011;1102;49.718;11.902;2023-04-08T01:25:30;13.17;;;9.37;;
2191;SDS011;1102;49.718;11.902;2023-04-08T01:28:06;13.20;;;10.67;;
2191;SDS011;1102;49.718;11.902;2023-04-08T01:30:40;10.37;;;8.70;;
2191;SDS011;1102;49.718;11.902;2023-04-08T01:33:09;9.73;;;8.67;;
2191;SDS011;1102;49.718;11.902;2023-04-08T01:35:38;10.30;;;9.00;;
2191;SDS011;1102;49.718;11.902;2023-04-08T01:38:06;9.53;;;8.10;;
2191;SDS011;1102;49.718;11.902;2023-04-08T01:40:35;10.80;;;8.73;;
2191;SDS011;1102;49.718;11.902;2023-04-08T01:43:04;12.73;;;10.10;;
2191;SDS011;1102;49.718;11.902;2023-04-08T01:45:36;15.33;;;10.97;;
2191;SDS011;1102;49.718;11.902;2023-04-08T01:48:04;12.27;;;10.27;;
2191;SDS011;1102;49.718;11.902;2023-04-08T01:50:32;13.23;;;10.80;;
2191;SDS011;1102;49.718;11.902;2023-04-08T01:53:00;12.17;;;9.17;;
2191;SDS011;1102;49.718;11.902;2023-04-08T01:55:31;15.00;;;9.50;;
2191;SDS011;1102;49.718;11.902;2023-04-08T01:57:58;11.50;;;10.30;;
2191;SDS011;1102;49.718;11.902;2023-04-08T02:00:28;10.33;;;9.40;;
2191;SDS011;1102;49.718;11.902;2023-04-08T02:02:56;10.73;;;9.60;;
2191;SDS011;1102;49.718;11.902;2023-04-08T02:05:25;10.63;;;9.53;;
2191;SDS011;1102;49.718;11.902;2023-04-08T02:07:52;10.77;;;9.67;;
2191;SDS011;1102;49.718;11.902;2023-04-08T02:10:18;14.63;;;9.17;;
2191;SDS011;1102;49.718;11.902;2023-04-08T02:12:45;11.87;;;9.20;;
2191;SDS011;1102;49.718;11.902;2023-04-08T02:15:12;10.33;;;9.30;;
2191;SDS011;1102;49.718;11.902;2023-04-08T02:17:47;10.20;;;9.20;;
2191;SDS011;1102;49.718;11.902;2023-04-08T02:20:20;9.50;;;8.60;;
2191;SDS011;1102;49.718;11.902;2023-04-08T02:23:14;12.70;;;9.80;;
2191;SDS011;1102;49.718;11.902;2023-04-08T02:25:45;11.33;;;9.07;;
2191;SDS011;1102;49.718;11.902;2023-04-08T02:28:14;10.57;;;9.40;;
2191;SDS011;1102;49.718;11.902;2023-04-08T02:30:46;12.83;;;9.43;;
2191;SDS011;1102;49.718;11.902;2023-04-08T02:33:16;11.90;;;10.03;;
2191;SDS011;1102;49.718;11.902;2023-04-08T02:35:45;10.40;;;8.53;;
2191;SDS011;1102;49.718;11.902;2023-04-08T02:38:14;12.20;;;9.50;;
2191;SDS011;1102;49.718;11.902;2023-04-08T02:40:42;12.40;;;8.77;;
2191;SDS011;1102;49.718;11.902;2023-04-08T02:43:08;10.77;;;8.47;;
2191;SDS011;1102;49.718;11.902;2023-04-08T02:45:40;9.70;;;8.50;;
2191;SDS011;1102;49.718;11.902;2023-04-08T02:48:08;8.73;;;7.40;;
2191;SDS011;1102;49.718;11.902;2023-04-08T02:50:35;8.73;;;6.90;;
2191;SDS011;1102;49.718;11.902;2023-04-08T02:53:02;7.67;;;6.57;;
2191;SDS011;1102;49.718;11.902;2023-04-08T02:55:31;6.23;;;5.47;;
2191;SDS011;1102;49.718;11.902;2023-04-08T02:57:58;8.60;;;7.00;;
2191;SDS011;1102;49.718;11.902;2023-04-08T03:00:25;8.57;;;6.67;;
2191;SDS011;1102;49.718;11.902;2023-04-08T03:02:51;7.30;;;6.60;;
2191;SDS011;1102;49.718;11.902;2023-04-08T03:05:18;7.33;;;6.67;;
2191;SDS011;1102;49.718;11.902;2023-04-08T03:07:45;9.17;;;7.27;;
2191;SDS011;1102;49.718;11.902;2023-04-08T03:10:12;8.90;;;5.73;;
2191;SDS011;1102;49.718;11.902;2023-04-08T03:12:39;9.07;;;5.20;;
2191;SDS011;1102;49.718;11.902;2023-04-08T03:15:05;9.07;;;7.07;;
2191;SDS011;1102;49.718;11.902;2023-04-08T03:17:32;8.10;;;5.77;;
2191;SDS011;1102;49.718;11.902;2023-04-08T03:20:00;8.47;;;6.60;;
2191;SDS011;1102;49.718;11.902;2023-04-08T03:22:30;10.37;;;6.63;;
2191;SDS011;1102;49.718;11.902;2023-04-08T03:24:56;6.77;;;6.17;;
2191;SDS011;1102;49.718;11.902;2023-04-08T03:27:23;8.00;;;6.97;;
2191;SDS011;1102;49.718;11.902;2023-04-08T03:29:50;7.33;;;6.57;;
2191;SDS011;1102;49.718;11.902;2023-04-08T03:32:18;9.10;;;6.67;;
2191;SDS011;1102;49.718;11.902;2023-04-08T03:34:45;7.07;;;6.03;;
2191;SDS011;1102;49.718;11.902;2023-04-08T03:37:11;10.20;;;7.43;;
2191;SDS011;1102;49.718;11.902;2023-04-08T03:39:38;7.90;;;7.00;;
2191;SDS011;1102;49.718;11.902;2023-04-08T03:42:05;8.90;;;6.30;;
2191;SDS011;1102;49.718;11.902;2023-04-08T03:44:31;11.80;;;6.80;;
2191;SDS011;1102;49.718;11.902;2023-04-08T03:46:58;9.90;;;8.00;;
2191;SDS011;1102;49.718;11.902;2023-04-08T03:49:25;7.60;;;6.90;;
2191;SDS011;1102;49.718;11.902;2023-04-08T03:51:51;8.20;;;6.90;;
2191;SDS011;1102;49.718;11.902;2023-04-08T03:54:18;10.80;;;7.30;;
2191;SDS011;1102;49.718;11.902;2023-04-08T03:56:45;10.13;;;7.33;;
2191;SDS011;1102;49.718;11.902;2023-04-08T03:59:11;8.10;;;7.37;;
2191;SDS011;1102;49.718;11.902;2023-04-08T04:01:38;8.83;;;7.93;;
2191;SDS011;1102;49.718;11.902;2023-04-08T04:04:07;8.77;;;7.50;;
2191;SDS011;1102;49.718;11.902;2023-04-08T04:06:34;9.90;;;7.90;;
2191;SDS011;1102;49.718;11.902;2023-04-08T04:09:00;8.83;;;7.93;;
2191;SDS011;1102;49.718;11.902;2023-04-08T04:11:27;15.10;;;9.67;;
2191;SDS011;1102;49.718;11.902;2023-04-08T04:13:54;9.97;;;7.60;;
2191;SDS011;1102;49.718;11.902;2023-04-08T04:16:21;15.70;;;7.77;;
2191;SDS011;1102;49.718;11.902;2023-04-08T04:18:48;11.37;;;9.30;;
2191;SDS011;1102;49.718;11.902;2023-04-08T04:21:15;9.53;;;7.80;;
2191;SDS011;1102;49.718;11.902;2023-04-08T04:23:41;9.13;;;7.53;;
2191;SDS011;1102;49.718;11.902;2023-04-08T04:26:08;10.50;;;8.00;;
2191;SDS011;1102;49.718;11.902;2023-04-08T04:28:35;7.40;;;6.50;;
2191;SDS011;1102;49.718;11.902;2023-04-08T04:31:03;8.30;;;7.33;;
2191;SDS011;1102;49.718;11.902;2023-04-08T04:33:30;9.33;;;7.63;;
2191;SDS011;1102;49.718;11.902;2023-04-08T04:35:57;9.00;;;7.10;;
2191;SDS011;1102;49.718;11.902;2023-04-08T04:38:24;11.60;;;8.40;;
2191;SDS011;1102;49.718;11.902;2023-04-08T04:40:51;10.43;;;8.47;;
2191;SDS011;1102;49.718;11.902;2023-04-08T04:43:17;7.90;;;7.10;;
2191;SDS011;1102;49.718;11.902;2023-04-08T04:45:44;8.57;;;7.00;;
2191;SDS011;1102;49.718;11.902;2023-04-08T04:48:11;8.50;;;7.20;;
2191;SDS011;1102;49.718;11.902;2023-04-08T04:50:37;9.63;;;8.50;;
2191;SDS011;1102;49.718;11.902;2023-04-08T04:53:04;12.10;;;8.67;;
2191;SDS011;1102;49.718;11.902;2023-04-08T04:55:31;9.43;;;8.27;;
2191;SDS011;1102;49.718;11.902;2023-04-08T04:57:57;11.53;;;8.60;;
2191;SDS011;1102;49.718;11.902;2023-04-08T05:00:24;9.67;;;8.33;;
2191;SDS011;1102;49.718;11.902;2023-04-08T05:02:51;9.07;;;7.50;;
2191;SDS011;1102;49.718;11.902;2023-04-08T05:05:18;14.23;;;8.90;;
2191;SDS011;1102;49.718;11.902;2023-04-08T05:07:45;9.77;;;8.37;;
2191;SDS011;1102;49.718;11.902;2023-04-08T05:10:11;9.33;;;8.00;;
2191;SDS011;1102;49.718;11.902;2023-04-08T05:12:38;11.83;;;10.63;;
2191;SDS011;1102;49.718;11.902;2023-04-08T05:15:05;9.77;;;8.77;;
2191;SDS011;1102;49.718;11.902;2023-04-08T05:17:32;10.60;;;9.50;;
2191;SDS011;1102;49.718;11.902;2023-04-08T05:19:59;10.93;;;9.07;;
2191;SDS011;1102;49.718;11.902;2023-04-08T05:22:26;9.93;;;9.03;;
2191;SDS011;1102;49.718;11.902;2023-04-08T05:24:52;14.30;;;10.80;;
2191;SDS011;1102;49.718;11.902;2023-04-08T05:27:19;11.33;;;10.03;;
2191;SDS011;1102;49.718;11.902;2023-04-08T05:29:47;10.63;;;9.50;;
2191;SDS011;1102;49.718;11.902;2023-04-08T05:32:13;10.00;;;8.40;;
2191;SDS011;1102;49.718;11.902;2023-04-08T05:34:42;11.27;;;10.17;;
2191;SDS011;1102;49.718;11.902;2023-04-08T05:37:09;13.03;;;10.67;;
2191;SDS011;1102;49.718;11.902;2023-04-08T05:39:36;13.10;;;10.87;;
2191;SDS011;1102;49.718;11.902;2023-04-08T05:42:03;14.43;;;10.77;;
2191;SDS011;1102;49.718;11.902;2023-04-08T05:44:30;11.37;;;9.60;;
2191;SDS011;1102;49.718;11.902;2023-04-08T05:46:56;12.20;;;9.40;;
2191;SDS011;1102;49.718;11.902;2023-04-08T05:49:23;11.37;;;9.27;;
2191;SDS011;1102;49.718;11.902;2023-04-08T05:51:50;10.30;;;9.27;;
2191;SDS011;1102;49.718;11.902;2023-04-08T05:54:17;12.53;;;10.00;;
2191;SDS011;1102;49.718;11.902;2023-04-08T05:56:43;9.63;;;8.77;;
2191;SDS011;1102;49.718;11.902;2023-04-08T05:59:11;11.57;;;10.17;;
2191;SDS011;1102;49.718;11.902;2023-04-08T06:01:38;10.70;;;8.80;;
2191;SDS011;1102;49.718;11.902;2023-04-08T06:04:05;10.80;;;9.00;;
2191;SDS011;1102;49.718;11.902;2023-04-08T06:06:32;11.47;;;10.23;;
2191;SDS011;1102;49.718;11.902;2023-04-08T06:08:59;14.80;;;10.00;;
2191;SDS011;1102;49.718;11.902;2023-04-08T06:11:26;12.40;;;10.27;;
2191;SDS011;1102;49.718;11.902;2023-04-08T06:13:52;14.90;;;9.10;;
2191;SDS011;1102;49.718;11.902;2023-04-08T06:16:19;10.53;;;9.30;;
2191;SDS011;1102;49.718;11.902;2023-04-08T06:18:46;12.00;;;10.80;;
2191;SDS011;1102;49.718;11.902;2023-04-08T06:21:14;16.37;;;10.47;;
2191;SDS011;1102;49.718;11.902;2023-04-08T06:23:41;12.83;;;10.73;;
2191;SDS011;1102;49.718;11.902;2023-04-08T06:26:08;14.00;;;10.43;;
2191;SDS011;1102;49.718;11.902;2023-04-08T06:28:34;11.93;;;9.47;;
2191;SDS011;1102;49.718;11.902;2023-04-08T06:31:01;14.60;;;13.03;;
2191;SDS011;1102;49.718;11.902;2023-04-08T06:33:28;18.60;;;13.50;;
2191;SDS011;1102;49.718;11.902;2023-04-08T06:36:01;16.90;;;12.90;;
2191;SDS011;1102;49.718;11.902;2023-04-08T06:38:32;16.33;;;11.13;;
2191;SDS011;1102;49.718;11.902;2023-04-08T06:41:06;33.13;;;25.80;;
2191;SDS011;1102;49.718;11.902;2023-04-08T06:43:33;86.03;;;71.63;;
2191;SDS011;1102;49.718;11.902;2023-04-08T06:46:01;29.77;;;26.00;;
2191;SDS011;1102;49.718;11.902;2023-04-08T06:48:28;11.07;;;9.90;;
2191;SDS011;1102;49.718;11.902;2023-04-08T06:50:56;10.87;;;8.77;;
2191;SDS011;1102;49.718;11.902;2023-04-08T06:53:23;10.87;;;9.53;;
2191;SDS011;1102;49.718;11.902;2023-04-08T06:55:50;11.50;;;9.20;;
2191;SDS011;1102;49.718;11.902;2023-04-08T06:58:17;11.57;;;8.10;;
2191;SDS011;1102;49.718;11.902;2023-04-08T07:00:44;11.40;;;9.07;;
2191;SDS011;1102;49.718;11.902;2023-04-08T07:03:11;8.40;;;7.50;;
2191;SDS011;1102;49.718;11.902;2023-04-08T07:05:38;8.90;;;7.37;;
2191;SDS011;1102;49.718;11.902;2023-04-08T07:08:05;7.70;;;6.57;;
2191;SDS011;1102;49.718;11.902;2023-04-08T07:10:32;7.57;;;6.63;;
2191;SDS011;1102;49.718;11.902;2023-04-08T07:13:00;7.43;;;6.23;;
2191;SDS011;1102;49.718;11.902;2023-04-08T07:15:27;9.27;;;6.80;;
2191;SDS011;1102;49.718;11.902;2023-04-08T07:17:53;7.20;;;6.47;;
2191;SDS011;1102;49.718;11.902;2023-04-08T07:20:25;7.73;;;6.70;;
2191;SDS011;1102;49.718;11.902;2023-04-08T07:22:52;8.47;;;7.27;;
2191;SDS011;1102;49.718;11.902;2023-04-08T07:25:18;8.83;;;7.70;;
2191;SDS011;1102;49.718;11.902;2023-04-08T07:27:45;8.73;;;7.70;;
2191;SDS011;1102;49.718;11.902;2023-04-08T07:30:12;7.80;;;7.03;;
2191;SDS011;1102;49.718;11.902;2023-04-08T07:32:39;6.53;;;5.80;;
2191;SDS011;1102;49.718;11.902;2023-04-08T07:35:06;4.97;;;4.53;;
2191;SDS011;1102;49.718;11.902;2023-04-08T07:37:33;7.00;;;6.30;;
2191;SDS011;1102;49.718;11.902;2023-04-08T07:40:00;7.10;;;5.83;;
2191;SDS011;1102;49.718;11.902;2023-04-08T07:42:27;6.50;;;5.87;;
2191;SDS011;1102;49.718;11.902;2023-04-08T07:44:54;7.17;;;6.33;;
2191;SDS011;1102;49.718;11.902;2023-04-08T07:47:21;5.27;;;4.77;;
2191;SDS011;1102;49.718;11.902;2023-04-08T07:49:48;6.70;;;5.93;;
2191;SDS011;1102;49.718;11.902;2023-04-08T07:52:15;7.43;;;6.03;;
2191;SDS011;1102;49.718;11.902;2023-04-08T07:54:41;6.63;;;5.23;;
2191;SDS011;1102;49.718;11.902;2023-04-08T07:57:08;5.47;;;4.90;;
2191;SDS011;1102;49.718;11.902;2023-04-08T07:59:35;8.10;;;5.70;;
2191;SDS011;1102;49.718;11.902;2023-04-08T08:02:02;7.30;;;6.53;;
2191;SDS011;1102;49.718;11.902;2023-04-08T08:04:29;6.77;;;5.70;;
2191;SDS011;1102;49.718;11.902;2023-04-08T08:06:56;7.20;;;5.63;;
2191;SDS011;1102;49.718;11.902;2023-04-08T08:09:23;6.60;;;5.90;;
2191;SDS011;1102;49.718;11.902;2023-04-08T08:11:49;6.77;;;6.07;;
2191;SDS011;1102;49.718;11.902;2023-04-08T08:14:16;5.70;;;4.67;;
2191;SDS011;1102;49.718;11.902;2023-04-08T08:16:43;8.10;;;5.13;;
2191;SDS011;1102;49.718;11.902;2023-04-08T08:19:10;5.53;;;4.63;;
2191;SDS011;1102;49.718;11.902;2023-04-08T08:21:37;7.37;;;6.33;;
2191;SDS011;1102;49.718;11.902;2023-04-08T08:24:07;5.07;;;4.33;;
2191;SDS011;1102;49.718;11.902;2023-04-08T08:26:34;5.43;;;4.60;;
2191;SDS011;1102;49.718;11.902;2023-04-08T08:29:04;4.60;;;4.20;;
2191;SDS011;1102;49.718;11.902;2023-04-08T08:31:34;6.10;;;5.50;;
2191;SDS011;1102;49.718;11.902;2023-04-08T08:34:00;5.40;;;4.90;;
2191;SDS011;1102;49.718;11.902;2023-04-08T08:36:27;5.27;;;4.77;;
2191;SDS011;1102;49.718;11.902;2023-04-08T08:38:54;5.60;;;4.37;;
2191;SDS011;1102;49.718;11.902;2023-04-08T08:41:21;4.77;;;4.37;;
2191;SDS011;1102;49.718;11.902;2023-04-08T08:43:47;5.47;;;4.97;;
2191;SDS011;1102;49.718;11.902;2023-04-08T08:46:16;4.63;;;4.23;;
2191;SDS011;1102;49.718;11.902;2023-04-08T08:48:44;4.03;;;3.63;;
2191;SDS011;1102;49.718;11.902;2023-04-08T08:51:12;4.20;;;3.80;;
2191;SDS011;1102;49.718;11.902;2023-04-08T08:53:38;5.20;;;4.80;;
2191;SDS011;1102;49.718;11.902;2023-04-08T08:56:10;5.17;;;4.63;;
2191;SDS011;1102;49.718;11.902;2023-04-08T08:58:40;4.80;;;4.23;;
2191;SDS011;1102;49.718;11.902;2023-04-08T09:04:10;4.27;;;3.87;;
2191;SDS011;1102;49.718;11.902;2023-04-08T09:06:46;4.83;;;4.33;;
2191;SDS011;1102;49.718;11.902;2023-04-08T09:09:15;4.87;;;4.37;;
2191;SDS011;1102;49.718;11.902;2023-04-08T09:11:46;3.77;;;3.57;;
2191;SDS011;1102;49.718;11.902;2023-04-08T09:14:23;4.90;;;4.07;;
2191;SDS011;1102;49.718;11.902;2023-04-08T09:16:51;3.87;;;3.57;;
2191;SDS011;1102;49.718;11.902;2023-04-08T09:19:18;3.80;;;3.40;;
2191;SDS011;1102;49.718;11.902;2023-04-08T09:21:46;5.27;;;4.87;;
2191;SDS011;1102;49.718;11.902;2023-04-08T09:24:30;3.00;;;2.80;;
2191;SDS011;1102;49.718;11.902;2023-04-08T09:26:57;4.67;;;4.27;;
2191;SDS011;1102;49.718;11.902;2023-04-08T09:29:24;4.87;;;4.57;;
2191;SDS011;1102;49.718;11.902;2023-04-08T09:31:55;4.77;;;4.37;;
2191;SDS011;1102;49.718;11.902;2023-04-08T09:34:24;5.07;;;4.57;;
2191;SDS011;1102;49.718;11.902;2023-04-08T09:36:52;6.57;;;4.40;;
2191;SDS011;1102;49.718;11.902;2023-04-08T09:39:20;6.27;;;4.30;;
2191;SDS011;1102;49.718;11.902;2023-04-08T09:41:48;4.60;;;4.20;;
2191;SDS011;1102;49.718;11.902;2023-04-08T09:44:17;4.90;;;4.50;;
2191;SDS011;1102;49.718;11.902;2023-04-08T09:52:05;5.50;;;5.00;;
2191;SDS011;1102;49.718;11.902;2023-04-08T09:57:39;5.27;;;4.57;;
2191;SDS011;1102;49.718;11.902;2023-04-08T10:05:40;4.30;;;3.90;;
2191;SDS011;1102;49.718;11.902;2023-04-08T10:08:08;4.50;;;4.20;;
2191;SDS011;1102;49.718;11.902;2023-04-08T10:10:37;5.07;;;4.57;;
2191;SDS011;1102;49.718;11.902;2023-04-08T10:13:08;3.50;;;3.20;;
2191;SDS011;1102;49.718;11.902;2023-04-08T10:15:35;3.30;;;3.10;;
2191;SDS011;1102;49.718;11.902;2023-04-08T10:23:08;4.80;;;4.40;;
2191;SDS011;1102;49.718;11.902;2023-04-08T10:36:10;7.90;;;3.90;;
2191;SDS011;1102;49.718;11.902;2023-04-08T10:38:38;4.03;;;3.53;;
2191;SDS011;1102;49.718;11.902;2023-04-08T10:41:10;3.30;;;3.00;;
2191;SDS011;1102;49.718;11.902;2023-04-08T10:43:46;3.37;;;3.10;;
2191;SDS011;1102;49.718;11.902;2023-04-08T10:46:13;3.20;;;3.00;;
2191;SDS011;1102;49.718;11.902;2023-04-08T10:48:40;3.17;;;2.83;;
2191;SDS011;1102;49.718;11.902;2023-04-08T10:51:07;3.17;;;2.60;;
2191;SDS011;1102;49.718;11.902;2023-04-08T10:53:35;3.57;;;3.27;;
2191;SDS011;1102;49.718;11.902;2023-04-08T10:56:07;3.00;;;2.80;;
2191;SDS011;1102;49.718;11.902;2023-04-08T10:58:36;4.10;;;3.57;;
2191;SDS011;1102;49.718;11.902;2023-04-08T11:01:13;3.70;;;2.60;;
2191;SDS011;1102;49.718;11.902;2023-04-08T11:03:41;3.77;;;3.43;;
2191;SDS011;1102;49.718;11.902;2023-04-08T11:06:08;4.03;;;3.43;;
2191;SDS011;1102;49.718;11.902;2023-04-08T11:08:35;3.47;;;3.17;;
2191;SDS011;1102;49.718;11.902;2023-04-08T11:11:03;4.80;;;3.40;;
2191;SDS011;1102;49.718;11.902;2023-04-08T11:13:44;3.40;;;3.10;;
2191;SDS011;1102;49.718;11.902;2023-04-08T11:16:22;3.73;;;3.00;;
2191;SDS011;1102;49.718;11.902;2023-04-08T11:18:49;4.00;;;3.60;;
2191;SDS011;1102;49.718;11.902;2023-04-08T11:21:16;5.53;;;4.53;;
2191;SDS011;1102;49.718;11.902;2023-04-08T11:23:43;3.50;;;2.87;;
2191;SDS011;1102;49.718;11.902;2023-04-08T11:26:10;4.90;;;4.27;;
2191;SDS011;1102;49.718;11.902;2023-04-08T11:28:37;4.67;;;4.30;;
2191;SDS011;1102;49.718;11.902;2023-04-08T11:31:04;6.00;;;4.70;;
2191;SDS011;1102;49.718;11.902;2023-04-08T11:33:31;4.37;;;3.80;;
2191;SDS011;1102;49.718;11.902;2023-04-08T11:35:59;3.37;;;3.00;;
2191;SDS011;1102;49.718;11.902;2023-04-08T11:38:27;6.13;;;4.53;;
2191;SDS011;1102;49.718;11.902;2023-04-08T11:40:55;5.50;;;5.00;;
2191;SDS011;1102;49.718;11.902;2023-04-08T11:43:24;4.57;;;3.83;;
2191;SDS011;1102;49.718;11.902;2023-04-08T11:45:54;4.77;;;3.53;;
2191;SDS011;1102;49.718;11.902;2023-04-08T11:48:21;4.40;;;4.00;;
2191;SDS011;1102;49.718;11.902;2023-04-08T11:51:00;3.90;;;3.50;;
2191;SDS011;1102;49.718;11.902;2023-04-08T11:53:28;4.03;;;3.67;;
2191;SDS011;1102;49.718;11.902;2023-04-08T11:55:55;3.70;;;3.40;;
2191;SDS011;1102;49.718;11.902;2023-04-08T11:58:22;2.70;;;2.50;;
2191;SDS011;1102;49.718;11.902;2023-04-08T12:00:48;3.33;;;3.03;;
2191;SDS011;1102;49.718;11.902;2023-04-08T12:03:16;3.90;;;3.53;;
2191;SDS011;1102;49.718;11.902;2023-04-08T12:05:43;4.10;;;3.73;;
2191;SDS011;1102;49.718;11.902;2023-04-08T12:08:09;2.97;;;2.63;;
2191;SDS011;1102;49.718;11.902;2023-04-08T12:10:36;4.03;;;3.60;;
2191;SDS011;1102;49.718;11.902;2023-04-08T12:13:03;2.80;;;2.60;;
2191;SDS011;1102;49.718;11.902;2023-04-08T12:15:29;3.30;;;3.00;;
2191;SDS011;1102;49.718;11.902;2023-04-08T12:17:56;3.50;;;3.20;;
2191;SDS011;1102;49.718;11.902;2023-04-08T12:20:23;2.90;;;2.57;;
2191;SDS011;1102;49.718;11.902;2023-04-08T12:22:49;2.87;;;2.67;;
2191;SDS011;1102;49.718;11.902;2023-04-08T12:25:16;2.90;;;2.60;;
2191;SDS011;1102;49.718;11.902;2023-04-08T12:27:43;3.07;;;2.77;;
2191;SDS011;1102;49.718;11.902;2023-04-08T12:30:10;2.90;;;2.60;;
2191;SDS011;1102;49.718;11.902;2023-04-08T12:32:37;3.83;;;3.53;;
2191;SDS011;1102;49.718;11.902;2023-04-08T12:35:04;4.00;;;3.50;;
2191;SDS011;1102;49.718;11.902;2023-04-08T12:37:31;3.60;;;3.40;;
2191;SDS011;1102;49.718;11.902;2023-04-08T12:39:58;4.87;;;4.47;;
2191;SDS011;1102;49.718;11.902;2023-04-08T12:42:25;9.73;;;8.30;;
2191;SDS011;1102;49.718;11.902;2023-04-08T12:44:53;3.37;;;2.73;;
2191;SDS011;1102;49.718;11.902;2023-04-08T12:47:19;3.67;;;3.40;;
2191;SDS011;1102;49.718;11.902;2023-04-08T12:49:47;2.77;;;2.57;;
2191;SDS011;1102;49.718;11.902;2023-04-08T12:52:15;3.10;;;2.80;;
2191;SDS011;1102;49.718;11.902;2023-04-08T12:54:42;2.90;;;2.70;;
2191;SDS011;1102;49.718;11.902;2023-04-08T12:57:09;5.70;;;3.30;;
2191;SDS011;1102;49.718;11.902;2023-04-08T12:59:36;4.27;;;3.40;;
2191;SDS011;1102;49.718;11.902;2023-04-08T13:02:05;2.60;;;2.30;;
2191;SDS011;1102;49.718;11.902;2023-04-08T13:04:33;2.07;;;1.90;;
2191;SDS011;1102;49.718;11.902;2023-04-08T13:07:00;2.70;;;2.50;;
2191;SDS011;1102;49.718;11.902;2023-04-08T13:09:26;3.53;;;2.23;;
2191;SDS011;1102;49.718;11.902;2023-04-08T13:11:55;2.63;;;2.30;;
2191;SDS011;1102;49.718;11.902;2023-04-08T13:14:23;2.53;;;2.33;;
2191;SDS011;1102;49.718;11.902;2023-04-08T13:16:50;3.20;;;2.57;;
2191;SDS011;1102;49.718;11.902;2023-04-08T13:19:17;3.50;;;3.03;;
2191;SDS011;1102;49.718;11.902;2023-04-08T13:21:44;3.87;;;3.23;;
2191;SDS011;1102;49.718;11.902;2023-04-08T13:24:11;3.27;;;2.90;;
2191;SDS011;1102;49.718;11.902;2023-04-08T13:26:38;4.27;;;2.97;;
2191;SDS011;1102;49.718;11.902;2023-04-08T13:29:05;2.67;;;2.47;;
2191;SDS011;1102;49.718;11.902;2023-04-08T13:31:32;2.60;;;2.30;;
2191;SDS011;1102;49.718;11.902;2023-04-08T13:33:58;3.30;;;3.00;;
2191;SDS011;1102;49.718;11.902;2023-04-08T13:36:25;4.00;;;3.60;;
2191;SDS011;1102;49.718;11.902;2023-04-08T13:38:54;3.30;;;3.10;;
2191;SDS011;1102;49.718;11.902;2023-04-08T13:41:21;3.77;;;3.40;;
2191;SDS011;1102;49.718;11.902;2023-04-08T13:43:48;4.40;;;3.20;;
2191;SDS011;1102;49.718;11.902;2023-04-08T13:46:15;3.83;;;3.50;;
2191;SDS011;1102;49.718;11.902;2023-04-08T13:48:43;4.60;;;4.20;;
2191;SDS011;1102;49.718;11.902;2023-04-08T13:51:10;3.30;;;3.07;;
2191;SDS011;1102;49.718;11.902;2023-04-08T13:53:37;3.60;;;3.30;;
2191;SDS011;1102;49.718;11.902;2023-04-08T13:56:03;3.33;;;3.03;;
2191;SDS011;1102;49.718;11.902;2023-04-08T13:58:50;3.63;;;3.33;;
2191;SDS011;1102;49.718;11.902;2023-04-08T14:01:22;3.17;;;2.97;;
2191;SDS011;1102;49.718;11.902;2023-04-08T14:03:49;3.70;;;3.43;;
2191;SDS011;1102;49.718;11.902;2023-04-08T14:06:16;4.17;;;3.87;;
2191;SDS011;1102;49.718;11.902;2023-04-08T14:08:45;3.70;;;3.40;;
2191;SDS011;1102;49.718;11.902;2023-04-08T14:11:12;3.40;;;3.10;;
2191;SDS011;1102;49.718;11.902;2023-04-08T14:13:38;4.07;;;3.77;;
2191;SDS011;1102;49.718;11.902;2023-04-08T14:16:05;3.33;;;3.10;;
2191;SDS011;1102;49.718;11.902;2023-04-08T14:18:32;4.17;;;3.77;;
2191;SDS011;1102;49.718;11.902;2023-04-08T14:20:59;4.43;;;4.03;;
2191;SDS011;1102;49.718;11.902;2023-04-08T14:23:25;4.67;;;4.27;;
2191;SDS011;1102;49.718;11.902;2023-04-08T14:25:52;4.47;;;4.10;;
2191;SDS011;1102;49.718;11.902;2023-04-08T14:28:19;4.80;;;4.50;;
2191;SDS011;1102;49.718;11.902;2023-04-08T14:30:45;4.53;;;4.10;;
2191;SDS011;1102;49.718;11.902;2023-04-08T14:33:12;4.23;;;3.93;;
2191;SDS011;1102;49.718;11.902;2023-04-08T14:35:40;4.93;;;4.63;;
2191;SDS011;1102;49.718;11.902;2023-04-08T14:38:07;6.10;;;5.00;;
2191;SDS011;1102;49.718;11.902;2023-04-08T14:40:34;7.40;;;5.23;;
2191;SDS011;1102;49.718;11.902;2023-04-08T14:43:03;5.20;;;4.77;;
2191;SDS011;1102;49.718;11.902;2023-04-08T14:45:29;5.63;;;5.07;;
2191;SDS011;1102;49.718;11.902;2023-04-08T14:47:56;5.13;;;4.73;;
2191;SDS011;1102;49.718;11.902;2023-04-08T14:50:23;4.97;;;4.57;;
2191;SDS011;1102;49.718;11.902;2023-04-08T14:52:50;5.23;;;4.77;;
2191;SDS011;1102;49.718;11.902;2023-04-08T14:55:16;5.27;;;4.77;;
2191;SDS011;1102;49.718;11.902;2023-04-08T14:57:43;5.73;;;5.23;;
2191;SDS011;1102;49.718;11.902;2023-04-08T15:00:10;8.10;;;6.47;;
2191;SDS011;1102;49.718;11.902;2023-04-08T15:02:37;6.10;;;5.50;;
2191;SDS011;1102;49.718;11.902;2023-04-08T15:05:04;8.80;;;6.40;;
2191;SDS011;1102;49.718;11.902;2023-04-08T15:07:31;6.03;;;5.43;;
2191;SDS011;1102;49.718;11.902;2023-04-08T15:09:58;7.43;;;5.60;;
2191;SDS011;1102;49.718;11.902;2023-04-08T15:12:25;5.07;;;4.67;;
2191;SDS011;1102;49.718;11.902;2023-04-08T15:14:51;9.97;;;7.13;;
2191;SDS011;1102;49.718;11.902;2023-04-08T15:17:18;5.80;;;5.20;;
2191;SDS011;1102;49.718;11.902;2023-04-08T15:19:45;6.70;;;6.00;;
2191;SDS011;1102;49.718;11.902;2023-04-08T15:22:12;6.87;;;6.27;;
2191;SDS011;1102;49.718;11.902;2023-04-08T15:24:38;6.53;;;4.83;;
2191;SDS011;1102;49.718;11.902;2023-04-08T15:27:05;5.53;;;5.03;;
2191;SDS011;1102;49.718;11.902;2023-04-08T15:29:32;7.20;;;6.50;;
2191;SDS011;1102;49.718;11.902;2023-04-08T15:31:58;6.13;;;5.60;;
2191;SDS011;1102;49.718;11.902;2023-04-08T15:34:25;6.93;;;5.93;;